sensor_id;sensor_type;location;lat;lon;timestamp;P1;durP1;ratioP1;P2;durP2;ratioP2
30553;SDS011;17335;50.720;7.452;2023-05-19T00:01:18;5.63;;;2.38;;
30553;SDS011;17335;50.720;7.452;2023-05-19T00:03:53;4.20;;;2.00;;
30553;SDS011;17335;50.720;7.452;2023-05-19T00:06:25;4.53;;;2.10;;
30553;SDS011;17335;50.720;7.452;2023-05-19T00:08:56;6.32;;;2.20;;
30553;SDS011;17335;50.720;7.452;2023-05-19T00:11:27;4.75;;;1.88;;
30553;SDS011;17335;50.720;7.452;2023-05-19T00:13:57;5.65;;;2.50;;
30553;SDS011;17335;50.720;7.452;2023-05-19T00:16:25;5.45;;;1.98;;
30553;SDS011;17335;50.720;7.452;2023-05-19T00:18:54;6.63;;;2.33;;
30553;SDS011;17335;50.720;7.452;2023-05-19T00:21:22;5.88;;;1.95;;
30553;SDS011;17335;50.720;7.452;2023-05-19T00:23:49;4.35;;;2.35;;
30553;SDS011;17335;50.720;7.452;2023-05-19T00:26:16;5.10;;;2.10;;
30553;SDS011;17335;50.720;7.452;2023-05-19T00:28:43;3.25;;;1.83;;
30553;SDS011;17335;50.720;7.452;2023-05-19T00:31:09;7.68;;;2.45;;
30553;SDS011;17335;50.720;7.452;2023-05-19T00:33:36;5.90;;;2.30;;
30553;SDS011;17335;50.720;7.452;2023-05-19T00:36:02;4.60;;;2.10;;
30553;SDS011;17335;50.720;7.452;2023-05-19T00:38:30;4.97;;;2.00;;
30553;SDS011;17335;50.720;7.452;2023-05-19T00:40:58;8.95;;;2.10;;
30553;SDS011;17335;50.720;7.452;2023-05-19T00:43:25;5.00;;;2.28;;
30553;SDS011;17335;50.720;7.452;2023-05-19T00:45:52;4.28;;;2.25;;
30553;SDS011;17335;50.720;7.452;2023-05-19T00:48:19;5.93;;;2.15;;
30553;SDS011;17335;50.720;7.452;2023-05-19T00:50:46;10.90;;;2.38;;
30553;SDS011;17335;50.720;7.452;2023-05-19T00:53:15;4.50;;;2.08;;
30553;SDS011;17335;50.720;7.452;2023-05-19T00:55:43;3.55;;;2.15;;
30553;SDS011;17335;50.720;7.452;2023-05-19T00:58:11;8.63;;;2.38;;
30553;SDS011;17335;50.720;7.452;2023-05-19T01:00:39;7.25;;;2.92;;
30553;SDS011;17335;50.720;7.452;2023-05-19T01:03:06;5.85;;;2.28;;
30553;SDS011;17335;50.720;7.452;2023-05-19T01:05:40;4.85;;;2.00;;
30553;SDS011;17335;50.720;7.452;2023-05-19T01:08:07;6.15;;;2.25;;
30553;SDS011;17335;50.720;7.452;2023-05-19T01:10:34;4.50;;;2.40;;
30553;SDS011;17335;50.720;7.452;2023-05-19T01:13:04;3.92;;;2.22;;
30553;SDS011;17335;50.720;7.452;2023-05-19T01:15:32;3.55;;;2.08;;
30553;SDS011;17335;50.720;7.452;2023-05-19T01:20:43;5.80;;;2.30;;
30553;SDS011;17335;50.720;7.452;2023-05-19T01:26:20;5.22;;;2.08;;
30553;SDS011;17335;50.720;7.452;2023-05-19T01:32:27;3.83;;;2.40;;
30553;SDS011;17335;50.720;7.452;2023-05-19T01:34:56;6.40;;;2.38;;
30553;SDS011;17335;50.720;7.452;2023-05-19T01:37:24;4.85;;;2.17;;
30553;SDS011;17335;50.720;7.452;2023-05-19T01:39:52;5.97;;;2.25;;
30553;SDS011;17335;50.720;7.452;2023-05-19T01:42:20;5.30;;;2.20;;
30553;SDS011;17335;50.720;7.452;2023-05-19T01:44:48;4.93;;;2.38;;
30553;SDS011;17335;50.720;7.452;2023-05-19T01:47:16;4.68;;;2.72;;
30553;SDS011;17335;50.720;7.452;2023-05-19T01:49:43;6.60;;;2.40;;
30553;SDS011;17335;50.720;7.452;2023-05-19T01:52:10;13.20;;;2.65;;
30553;SDS011;17335;50.720;7.452;2023-05-19T01:54:36;5.15;;;1.95;;
30553;SDS011;17335;50.720;7.452;2023-05-19T02:02:42;3.65;;;2.08;;
30553;SDS011;17335;50.720;7.452;2023-05-19T02:05:52;4.30;;;1.98;;
30553;SDS011;17335;50.720;7.452;2023-05-19T02:11:24;4.97;;;2.13;;
30553;SDS011;17335;50.720;7.452;2023-05-19T02:13:56;5.90;;;2.33;;
30553;SDS011;17335;50.720;7.452;2023-05-19T02:16:28;5.70;;;2.20;;
30553;SDS011;17335;50.720;7.452;2023-05-19T02:18:55;5.13;;;2.20;;
30553;SDS011;17335;50.720;7.452;2023-05-19T02:21:22;6.38;;;2.45;;
30553;SDS011;17335;50.720;7.452;2023-05-19T02:23:49;6.38;;;2.20;;
30553;SDS011;17335;50.720;7.452;2023-05-19T02:26:16;6.50;;;2.22;;
30553;SDS011;17335;50.720;7.452;2023-05-19T02:28:42;5.55;;;2.13;;
30553;SDS011;17335;50.720;7.452;2023-05-19T02:31:08;8.30;;;2.33;;
30553;SDS011;17335;50.720;7.452;2023-05-19T02:33:35;3.50;;;2.03;;
30553;SDS011;17335;50.720;7.452;2023-05-19T02:36:02;4.60;;;2.50;;
30553;SDS011;17335;50.720;7.452;2023-05-19T02:38:29;6.55;;;2.10;;
30553;SDS011;17335;50.720;7.452;2023-05-19T02:40:56;5.47;;;2.38;;
30553;SDS011;17335;50.720;7.452;2023-05-19T02:43:22;8.23;;;1.88;;
30553;SDS011;17335;50.720;7.452;2023-05-19T02:45:49;5.38;;;2.92;;
30553;SDS011;17335;50.720;7.452;2023-05-19T02:48:15;6.97;;;2.42;;
30553;SDS011;17335;50.720;7.452;2023-05-19T02:50:41;5.20;;;2.30;;
30553;SDS011;17335;50.720;7.452;2023-05-19T02:53:08;4.78;;;2.40;;
30553;SDS011;17335;50.720;7.452;2023-05-19T02:55:35;5.78;;;2.30;;
30553;SDS011;17335;50.720;7.452;2023-05-19T02:58:02;4.97;;;2.35;;
30553;SDS011;17335;50.720;7.452;2023-05-19T03:00:29;5.53;;;2.13;;
30553;SDS011;17335;50.720;7.452;2023-05-19T03:02:56;6.22;;;2.65;;
30553;SDS011;17335;50.720;7.452;2023-05-19T03:05:28;5.80;;;2.10;;
30553;SDS011;17335;50.720;7.452;2023-05-19T03:07:55;8.75;;;2.67;;
30553;SDS011;17335;50.720;7.452;2023-05-19T03:10:22;7.88;;;2.15;;
30553;SDS011;17335;50.720;7.452;2023-05-19T03:12:48;7.35;;;2.70;;
30553;SDS011;17335;50.720;7.452;2023-05-19T03:15:15;7.10;;;2.10;;
30553;SDS011;17335;50.720;7.452;2023-05-19T03:17:42;5.40;;;2.15;;
30553;SDS011;17335;50.720;7.452;2023-05-19T03:20:09;3.80;;;2.22;;
30553;SDS011;17335;50.720;7.452;2023-05-19T03:22:36;5.78;;;2.60;;
30553;SDS011;17335;50.720;7.452;2023-05-19T03:25:03;5.25;;;2.15;;
30553;SDS011;17335;50.720;7.452;2023-05-19T03:27:30;6.10;;;2.30;;
30553;SDS011;17335;50.720;7.452;2023-05-19T03:29:56;6.22;;;2.60;;
30553;SDS011;17335;50.720;7.452;2023-05-19T03:32:23;8.52;;;2.45;;
30553;SDS011;17335;50.720;7.452;2023-05-19T03:34:50;4.53;;;2.15;;
30553;SDS011;17335;50.720;7.452;2023-05-19T03:37:16;3.92;;;2.20;;
30553;SDS011;17335;50.720;7.452;2023-05-19T03:39:43;10.60;;;2.70;;
30553;SDS011;17335;50.720;7.452;2023-05-19T03:42:09;3.80;;;2.25;;
30553;SDS011;17335;50.720;7.452;2023-05-19T03:44:36;5.63;;;2.50;;
30553;SDS011;17335;50.720;7.452;2023-05-19T03:47:03;6.32;;;2.78;;
30553;SDS011;17335;50.720;7.452;2023-05-19T03:49:29;4.18;;;2.08;;
30553;SDS011;17335;50.720;7.452;2023-05-19T03:51:56;7.15;;;2.60;;
30553;SDS011;17335;50.720;7.452;2023-05-19T03:54:23;6.80;;;2.53;;
30553;SDS011;17335;50.720;7.452;2023-05-19T03:56:49;4.60;;;2.40;;
30553;SDS011;17335;50.720;7.452;2023-05-19T03:59:17;6.00;;;2.20;;
30553;SDS011;17335;50.720;7.452;2023-05-19T04:01:43;6.53;;;2.15;;
30553;SDS011;17335;50.720;7.452;2023-05-19T04:04:10;3.28;;;1.95;;
30553;SDS011;17335;50.720;7.452;2023-05-19T04:06:37;6.15;;;2.88;;
30553;SDS011;17335;50.720;7.452;2023-05-19T04:09:09;5.45;;;2.30;;
30553;SDS011;17335;50.720;7.452;2023-05-19T04:11:38;4.97;;;2.20;;
30553;SDS011;17335;50.720;7.452;2023-05-19T04:14:06;4.55;;;2.28;;
30553;SDS011;17335;50.720;7.452;2023-05-19T04:16:33;9.93;;;2.28;;
30553;SDS011;17335;50.720;7.452;2023-05-19T04:19:00;5.40;;;2.35;;
30553;SDS011;17335;50.720;7.452;2023-05-19T04:21:27;5.25;;;2.25;;
30553;SDS011;17335;50.720;7.452;2023-05-19T04:23:53;5.60;;;2.50;;
30553;SDS011;17335;50.720;7.452;2023-05-19T04:26:20;8.40;;;2.65;;
30553;SDS011;17335;50.720;7.452;2023-05-19T04:28:47;5.97;;;2.67;;
30553;SDS011;17335;50.720;7.452;2023-05-19T04:31:14;4.65;;;2.70;;
30553;SDS011;17335;50.720;7.452;2023-05-19T04:33:44;4.85;;;2.45;;
30553;SDS011;17335;50.720;7.452;2023-05-19T04:36:11;7.60;;;2.83;;
30553;SDS011;17335;50.720;7.452;2023-05-19T04:38:39;7.38;;;2.50;;
30553;SDS011;17335;50.720;7.452;2023-05-19T04:41:05;5.20;;;2.60;;
30553;SDS011;17335;50.720;7.452;2023-05-19T04:43:35;8.30;;;3.05;;
30553;SDS011;17335;50.720;7.452;2023-05-19T04:46:08;6.18;;;2.63;;
30553;SDS011;17335;50.720;7.452;2023-05-19T04:48:39;7.90;;;2.65;;
30553;SDS011;17335;50.720;7.452;2023-05-19T04:51:06;11.07;;;2.80;;
30553;SDS011;17335;50.720;7.452;2023-05-19T04:53:33;8.52;;;2.22;;
30553;SDS011;17335;50.720;7.452;2023-05-19T04:56:00;4.22;;;2.00;;
30553;SDS011;17335;50.720;7.452;2023-05-19T04:58:27;4.72;;;2.10;;
30553;SDS011;17335;50.720;7.452;2023-05-19T05:00:53;4.05;;;1.88;;
30553;SDS011;17335;50.720;7.452;2023-05-19T05:03:23;7.53;;;1.77;;
30553;SDS011;17335;50.720;7.452;2023-05-19T05:05:51;8.35;;;2.42;;
30553;SDS011;17335;50.720;7.452;2023-05-19T05:08:18;5.50;;;1.88;;
30553;SDS011;17335;50.720;7.452;2023-05-19T05:10:51;5.85;;;2.03;;
30553;SDS011;17335;50.720;7.452;2023-05-19T05:13:21;9.30;;;2.10;;
30553;SDS011;17335;50.720;7.452;2023-05-19T05:15:49;3.88;;;1.80;;
30553;SDS011;17335;50.720;7.452;2023-05-19T05:18:17;7.40;;;1.88;;
30553;SDS011;17335;50.720;7.452;2023-05-19T05:20:44;4.88;;;1.80;;
30553;SDS011;17335;50.720;7.452;2023-05-19T05:23:12;6.90;;;2.28;;
30553;SDS011;17335;50.720;7.452;2023-05-19T05:25:42;11.05;;;2.72;;
30553;SDS011;17335;50.720;7.452;2023-05-19T05:28:09;6.15;;;2.42;;
30553;SDS011;17335;50.720;7.452;2023-05-19T05:30:36;8.95;;;2.53;;
30553;SDS011;17335;50.720;7.452;2023-05-19T05:33:03;5.57;;;2.38;;
30553;SDS011;17335;50.720;7.452;2023-05-19T05:35:30;4.38;;;1.92;;
30553;SDS011;17335;50.720;7.452;2023-05-19T05:37:57;8.90;;;2.63;;
30553;SDS011;17335;50.720;7.452;2023-05-19T05:40:24;7.68;;;2.97;;
30553;SDS011;17335;50.720;7.452;2023-05-19T05:42:50;5.65;;;2.28;;
30553;SDS011;17335;50.720;7.452;2023-05-19T05:45:17;6.68;;;2.30;;
30553;SDS011;17335;50.720;7.452;2023-05-19T05:47:43;7.53;;;2.33;;
30553;SDS011;17335;50.720;7.452;2023-05-19T05:50:11;4.85;;;2.58;;
30553;SDS011;17335;50.720;7.452;2023-05-19T05:52:38;8.18;;;2.88;;
30553;SDS011;17335;50.720;7.452;2023-05-19T05:55:06;6.85;;;2.38;;
30553;SDS011;17335;50.720;7.452;2023-05-19T05:57:33;8.15;;;2.45;;
30553;SDS011;17335;50.720;7.452;2023-05-19T06:00:01;6.85;;;2.22;;
30553;SDS011;17335;50.720;7.452;2023-05-19T06:02:32;7.47;;;2.38;;
30553;SDS011;17335;50.720;7.452;2023-05-19T06:04:59;5.28;;;2.08;;
30553;SDS011;17335;50.720;7.452;2023-05-19T06:07:25;5.07;;;2.38;;
30553;SDS011;17335;50.720;7.452;2023-05-19T06:09:52;5.22;;;2.22;;
30553;SDS011;17335;50.720;7.452;2023-05-19T06:12:19;9.15;;;2.40;;
30553;SDS011;17335;50.720;7.452;2023-05-19T06:14:45;7.45;;;2.50;;
30553;SDS011;17335;50.720;7.452;2023-05-19T06:17:12;9.63;;;2.47;;
30553;SDS011;17335;50.720;7.452;2023-05-19T06:19:38;6.90;;;2.55;;
30553;SDS011;17335;50.720;7.452;2023-05-19T06:22:05;9.48;;;2.53;;
30553;SDS011;17335;50.720;7.452;2023-05-19T06:24:31;6.47;;;2.70;;
30553;SDS011;17335;50.720;7.452;2023-05-19T06:26:58;7.25;;;2.60;;
30553;SDS011;17335;50.720;7.452;2023-05-19T06:29:25;9.13;;;2.25;;
30553;SDS011;17335;50.720;7.452;2023-05-19T06:31:51;5.93;;;1.92;;
30553;SDS011;17335;50.720;7.452;2023-05-19T06:34:18;7.88;;;2.13;;
30553;SDS011;17335;50.720;7.452;2023-05-19T06:36:46;6.25;;;2.47;;
30553;SDS011;17335;50.720;7.452;2023-05-19T06:39:13;5.90;;;2.35;;
30553;SDS011;17335;50.720;7.452;2023-05-19T06:41:39;9.77;;;2.72;;
30553;SDS011;17335;50.720;7.452;2023-05-19T06:44:06;7.45;;;2.72;;
30553;SDS011;17335;50.720;7.452;2023-05-19T06:46:34;8.27;;;2.03;;
30553;SDS011;17335;50.720;7.452;2023-05-19T06:49:00;5.32;;;2.20;;
30553;SDS011;17335;50.720;7.452;2023-05-19T06:51:27;7.88;;;2.10;;
30553;SDS011;17335;50.720;7.452;2023-05-19T06:53:54;7.20;;;2.22;;
30553;SDS011;17335;50.720;7.452;2023-05-19T06:56:21;8.23;;;2.63;;
30553;SDS011;17335;50.720;7.452;2023-05-19T06:58:48;3.70;;;1.77;;
30553;SDS011;17335;50.720;7.452;2023-05-19T07:01:14;5.82;;;2.10;;
30553;SDS011;17335;50.720;7.452;2023-05-19T07:03:41;8.70;;;2.03;;
30553;SDS011;17335;50.720;7.452;2023-05-19T07:06:08;7.00;;;2.10;;
30553;SDS011;17335;50.720;7.452;2023-05-19T07:08:35;3.97;;;1.80;;
30553;SDS011;17335;50.720;7.452;2023-05-19T07:11:02;6.18;;;1.77;;
30553;SDS011;17335;50.720;7.452;2023-05-19T07:13:29;7.57;;;2.72;;
30553;SDS011;17335;50.720;7.452;2023-05-19T07:15:55;4.85;;;2.00;;
30553;SDS011;17335;50.720;7.452;2023-05-19T07:18:23;8.30;;;1.95;;
30553;SDS011;17335;50.720;7.452;2023-05-19T07:20:50;5.13;;;1.77;;
30553;SDS011;17335;50.720;7.452;2023-05-19T07:23:19;7.28;;;2.30;;
30553;SDS011;17335;50.720;7.452;2023-05-19T07:25:45;5.28;;;2.08;;
30553;SDS011;17335;50.720;7.452;2023-05-19T07:28:12;4.35;;;2.10;;
30553;SDS011;17335;50.720;7.452;2023-05-19T07:30:38;6.57;;;2.10;;
30553;SDS011;17335;50.720;7.452;2023-05-19T07:33:05;6.25;;;1.98;;
30553;SDS011;17335;50.720;7.452;2023-05-19T07:35:32;6.10;;;1.83;;
30553;SDS011;17335;50.720;7.452;2023-05-19T07:38:02;4.88;;;1.75;;
30553;SDS011;17335;50.720;7.452;2023-05-19T07:40:29;6.22;;;2.13;;
30553;SDS011;17335;50.720;7.452;2023-05-19T07:42:56;4.05;;;2.00;;
30553;SDS011;17335;50.720;7.452;2023-05-19T07:45:23;7.05;;;2.55;;
30553;SDS011;17335;50.720;7.452;2023-05-19T07:47:49;10.85;;;1.95;;
30553;SDS011;17335;50.720;7.452;2023-05-19T07:50:16;6.18;;;1.73;;
30553;SDS011;17335;50.720;7.452;2023-05-19T07:52:43;4.55;;;2.00;;
30553;SDS011;17335;50.720;7.452;2023-05-19T07:55:09;7.07;;;2.05;;
30553;SDS011;17335;50.720;7.452;2023-05-19T07:57:37;4.85;;;1.85;;
30553;SDS011;17335;50.720;7.452;2023-05-19T08:00:04;4.30;;;1.98;;
30553;SDS011;17335;50.720;7.452;2023-05-19T08:02:35;10.65;;;2.05;;
30553;SDS011;17335;50.720;7.452;2023-05-19T08:05:01;4.82;;;1.75;;
30553;SDS011;17335;50.720;7.452;2023-05-19T08:07:28;6.57;;;1.88;;
30553;SDS011;17335;50.720;7.452;2023-05-19T08:09:55;6.80;;;2.20;;
30553;SDS011;17335;50.720;7.452;2023-05-19T08:12:21;6.70;;;1.90;;
30553;SDS011;17335;50.720;7.452;2023-05-19T08:14:48;6.65;;;1.83;;
30553;SDS011;17335;50.720;7.452;2023-05-19T08:17:15;5.35;;;2.03;;
30553;SDS011;17335;50.720;7.452;2023-05-19T08:19:41;5.88;;;1.70;;
30553;SDS011;17335;50.720;7.452;2023-05-19T08:22:08;4.88;;;1.90;;
30553;SDS011;17335;50.720;7.452;2023-05-19T08:24:35;5.18;;;1.70;;
30553;SDS011;17335;50.720;7.452;2023-05-19T08:27:02;6.85;;;2.25;;
30553;SDS011;17335;50.720;7.452;2023-05-19T08:29:30;10.75;;;2.40;;
30553;SDS011;17335;50.720;7.452;2023-05-19T08:31:58;3.95;;;2.08;;
30553;SDS011;17335;50.720;7.452;2023-05-19T08:34:25;7.35;;;2.58;;
30553;SDS011;17335;50.720;7.452;2023-05-19T08:36:51;5.55;;;1.77;;
30553;SDS011;17335;50.720;7.452;2023-05-19T08:39:18;6.40;;;2.00;;
30553;SDS011;17335;50.720;7.452;2023-05-19T08:41:49;6.10;;;1.60;;
30553;SDS011;17335;50.720;7.452;2023-05-19T08:44:16;8.95;;;2.13;;
30553;SDS011;17335;50.720;7.452;2023-05-19T08:46:45;5.88;;;1.60;;
30553;SDS011;17335;50.720;7.452;2023-05-19T08:49:13;9.95;;;2.00;;
30553;SDS011;17335;50.720;7.452;2023-05-19T08:51:49;6.53;;;1.60;;
30553;SDS011;17335;50.720;7.452;2023-05-19T08:54:42;6.20;;;1.98;;
30553;SDS011;17335;50.720;7.452;2023-05-19T08:57:13;7.47;;;2.03;;
30553;SDS011;17335;50.720;7.452;2023-05-19T08:59:40;10.25;;;2.20;;
30553;SDS011;17335;50.720;7.452;2023-05-19T09:02:09;7.75;;;2.10;;
30553;SDS011;17335;50.720;7.452;2023-05-19T09:04:38;5.35;;;2.17;;
30553;SDS011;17335;50.720;7.452;2023-05-19T09:07:06;4.30;;;1.85;;
30553;SDS011;17335;50.720;7.452;2023-05-19T09:09:34;5.78;;;1.83;;
30553;SDS011;17335;50.720;7.452;2023-05-19T09:12:01;4.30;;;1.50;;
30553;SDS011;17335;50.720;7.452;2023-05-19T09:14:28;6.53;;;1.73;;
30553;SDS011;17335;50.720;7.452;2023-05-19T09:16:54;7.55;;;2.33;;
30553;SDS011;17335;50.720;7.452;2023-05-19T09:19:22;7.35;;;1.77;;
30553;SDS011;17335;50.720;7.452;2023-05-19T09:21:57;6.95;;;2.13;;
30553;SDS011;17335;50.720;7.452;2023-05-19T09:24:30;4.57;;;1.90;;
30553;SDS011;17335;50.720;7.452;2023-05-19T09:26:56;4.53;;;2.05;;
30553;SDS011;17335;50.720;7.452;2023-05-19T09:29:25;6.60;;;1.73;;
30553;SDS011;17335;50.720;7.452;2023-05-19T09:31:53;4.72;;;2.05;;
30553;SDS011;17335;50.720;7.452;2023-05-19T09:34:22;6.15;;;2.05;;
30553;SDS011;17335;50.720;7.452;2023-05-19T09:36:50;3.55;;;1.50;;
30553;SDS011;17335;50.720;7.452;2023-05-19T09:39:19;5.82;;;1.70;;
30553;SDS011;17335;50.720;7.452;2023-05-19T09:41:49;7.80;;;2.22;;
30553;SDS011;17335;50.720;7.452;2023-05-19T09:46:49;4.20;;;1.50;;
30553;SDS011;17335;50.720;7.452;2023-05-19T09:49:20;7.40;;;2.00;;
30553;SDS011;17335;50.720;7.452;2023-05-19T09:51:53;9.25;;;2.00;;
30553;SDS011;17335;50.720;7.452;2023-05-19T09:54:21;7.40;;;1.50;;
30553;SDS011;17335;50.720;7.452;2023-05-19T09:56:50;6.38;;;1.80;;
30553;SDS011;17335;50.720;7.452;2023-05-19T09:59:22;7.30;;;1.70;;
30553;SDS011;17335;50.720;7.452;2023-05-19T10:01:56;7.10;;;1.77;;
30553;SDS011;17335;50.720;7.452;2023-05-19T10:04:25;11.48;;;2.15;;
30553;SDS011;17335;50.720;7.452;2023-05-19T10:06:53;4.95;;;1.95;;
30553;SDS011;17335;50.720;7.452;2023-05-19T10:09:24;5.53;;;1.55;;
30553;SDS011;17335;50.720;7.452;2023-05-19T10:11:53;4.90;;;1.70;;
30553;SDS011;17335;50.720;7.452;2023-05-19T10:14:21;7.22;;;1.77;;
30553;SDS011;17335;50.720;7.452;2023-05-19T10:16:54;4.50;;;1.85;;
30553;SDS011;17335;50.720;7.452;2023-05-19T10:19:23;4.75;;;1.40;;
30553;SDS011;17335;50.720;7.452;2023-05-19T10:21:52;6.78;;;2.03;;
30553;SDS011;17335;50.720;7.452;2023-05-19T10:24:19;9.15;;;1.85;;
30553;SDS011;17335;50.720;7.452;2023-05-19T10:29:21;7.10;;;1.67;;
30553;SDS011;17335;50.720;7.452;2023-05-19T10:31:52;7.63;;;2.03;;
30553;SDS011;17335;50.720;7.452;2023-05-19T10:40:18;10.65;;;1.67;;
30553;SDS011;17335;50.720;7.452;2023-05-19T10:42:57;5.97;;;1.60;;
30553;SDS011;17335;50.720;7.452;2023-05-19T10:45:35;7.72;;;1.75;;
30553;SDS011;17335;50.720;7.452;2023-05-19T10:48:20;7.75;;;1.80;;
30553;SDS011;17335;50.720;7.452;2023-05-19T10:50:48;3.70;;;1.60;;
30553;SDS011;17335;50.720;7.452;2023-05-19T10:53:19;5.50;;;1.60;;
30553;SDS011;17335;50.720;7.452;2023-05-19T10:55:52;5.90;;;2.03;;
30553;SDS011;17335;50.720;7.452;2023-05-19T10:58:37;3.40;;;1.45;;
30553;SDS011;17335;50.720;7.452;2023-05-19T11:01:14;4.30;;;1.75;;
30553;SDS011;17335;50.720;7.452;2023-05-19T11:06:17;4.70;;;1.50;;
30553;SDS011;17335;50.720;7.452;2023-05-19T11:11:26;4.68;;;2.00;;
30553;SDS011;17335;50.720;7.452;2023-05-19T11:14:18;4.45;;;1.45;;
30553;SDS011;17335;50.720;7.452;2023-05-19T11:16:49;7.22;;;1.90;;
30553;SDS011;17335;50.720;7.452;2023-05-19T11:19:26;4.88;;;1.40;;
30553;SDS011;17335;50.720;7.452;2023-05-19T11:22:07;6.20;;;1.70;;
30553;SDS011;17335;50.720;7.452;2023-05-19T11:27:18;5.63;;;1.67;;
30553;SDS011;17335;50.720;7.452;2023-05-19T11:29:51;4.85;;;1.80;;
30553;SDS011;17335;50.720;7.452;2023-05-19T11:32:20;4.07;;;1.98;;
30553;SDS011;17335;50.720;7.452;2023-05-19T11:34:51;7.70;;;1.73;;
30553;SDS011;17335;50.720;7.452;2023-05-19T11:37:18;7.78;;;1.88;;
30553;SDS011;17335;50.720;7.452;2023-05-19T11:39:45;4.85;;;1.80;;
30553;SDS011;17335;50.720;7.452;2023-05-19T11:42:12;6.82;;;2.17;;
30553;SDS011;17335;50.720;7.452;2023-05-19T11:44:39;5.47;;;1.73;;
30553;SDS011;17335;50.720;7.452;2023-05-19T11:47:06;4.22;;;1.90;;
30553;SDS011;17335;50.720;7.452;2023-05-19T11:49:33;4.63;;;1.65;;
30553;SDS011;17335;50.720;7.452;2023-05-19T11:52:00;4.97;;;1.85;;
30553;SDS011;17335;50.720;7.452;2023-05-19T11:54:29;5.30;;;1.20;;
30553;SDS011;17335;50.720;7.452;2023-05-19T11:57:01;10.55;;;2.10;;
30553;SDS011;17335;50.720;7.452;2023-05-19T11:59:32;6.03;;;1.70;;
30553;SDS011;17335;50.720;7.452;2023-05-19T12:02:02;4.50;;;1.73;;
30553;SDS011;17335;50.720;7.452;2023-05-19T12:04:51;6.47;;;1.75;;
30553;SDS011;17335;50.720;7.452;2023-05-19T12:07:19;5.65;;;1.55;;
30553;SDS011;17335;50.720;7.452;2023-05-19T12:09:48;5.82;;;1.60;;
30553;SDS011;17335;50.720;7.452;2023-05-19T12:12:17;6.95;;;1.40;;
30553;SDS011;17335;50.720;7.452;2023-05-19T12:14:45;8.82;;;1.80;;
30553;SDS011;17335;50.720;7.452;2023-05-19T12:17:12;5.47;;;1.92;;
30553;SDS011;17335;50.720;7.452;2023-05-19T12:19:40;4.93;;;1.70;;
30553;SDS011;17335;50.720;7.452;2023-05-19T12:22:10;2.65;;;1.55;;
30553;SDS011;17335;50.720;7.452;2023-05-19T12:24:37;4.07;;;1.67;;
30553;SDS011;17335;50.720;7.452;2023-05-19T12:27:09;4.93;;;1.50;;
30553;SDS011;17335;50.720;7.452;2023-05-19T12:29:39;5.55;;;1.65;;
30553;SDS011;17335;50.720;7.452;2023-05-19T12:32:06;5.57;;;1.50;;
30553;SDS011;17335;50.720;7.452;2023-05-19T12:34:35;3.70;;;1.40;;
30553;SDS011;17335;50.720;7.452;2023-05-19T12:37:02;4.78;;;1.58;;
30553;SDS011;17335;50.720;7.452;2023-05-19T12:39:30;7.93;;;1.70;;
30553;SDS011;17335;50.720;7.452;2023-05-19T12:42:01;7.38;;;1.58;;
30553;SDS011;17335;50.720;7.452;2023-05-19T12:44:40;3.42;;;1.52;;
30553;SDS011;17335;50.720;7.452;2023-05-19T12:47:08;6.23;;;1.80;;
30553;SDS011;17335;50.720;7.452;2023-05-19T12:49:35;5.20;;;1.90;;
30553;SDS011;17335;50.720;7.452;2023-05-19T12:52:02;3.85;;;1.27;;
30553;SDS011;17335;50.720;7.452;2023-05-19T12:54:35;3.92;;;2.08;;
30553;SDS011;17335;50.720;7.452;2023-05-19T12:57:04;4.95;;;1.90;;
30553;SDS011;17335;50.720;7.452;2023-05-19T12:59:32;3.80;;;1.42;;
30553;SDS011;17335;50.720;7.452;2023-05-19T13:02:04;6.25;;;1.67;;
30553;SDS011;17335;50.720;7.452;2023-05-19T13:04:31;4.55;;;1.52;;
30553;SDS011;17335;50.720;7.452;2023-05-19T13:06:58;4.50;;;1.65;;
30553;SDS011;17335;50.720;7.452;2023-05-19T13:09:24;7.03;;;1.60;;
30553;SDS011;17335;50.720;7.452;2023-05-19T13:11:53;7.47;;;1.55;;
30553;SDS011;17335;50.720;7.452;2023-05-19T13:14:20;4.93;;;1.23;;
30553;SDS011;17335;50.720;7.452;2023-05-19T13:16:46;7.00;;;1.45;;
30553;SDS011;17335;50.720;7.452;2023-05-19T13:19:14;3.33;;;1.50;;
30553;SDS011;17335;50.720;7.452;2023-05-19T13:21:51;4.32;;;1.70;;
30553;SDS011;17335;50.720;7.452;2023-05-19T13:24:17;2.50;;;1.48;;
30553;SDS011;17335;50.720;7.452;2023-05-19T13:26:44;4.93;;;1.58;;
30553;SDS011;17335;50.720;7.452;2023-05-19T13:29:11;3.67;;;1.67;;
30553;SDS011;17335;50.720;7.452;2023-05-19T13:31:37;4.05;;;1.45;;
30553;SDS011;17335;50.720;7.452;2023-05-19T13:34:04;4.93;;;1.60;;
30553;SDS011;17335;50.720;7.452;2023-05-19T13:36:31;4.40;;;1.50;;
30553;SDS011;17335;50.720;7.452;2023-05-19T13:38:58;5.68;;;1.42;;
30553;SDS011;17335;50.720;7.452;2023-05-19T13:41:25;7.03;;;2.08;;
30553;SDS011;17335;50.720;7.452;2023-05-19T13:43:57;7.22;;;1.50;;
30553;SDS011;17335;50.720;7.452;2023-05-19T13:46:24;4.10;;;1.52;;
30553;SDS011;17335;50.720;7.452;2023-05-19T13:49:08;5.35;;;1.60;;
30553;SDS011;17335;50.720;7.452;2023-05-19T13:51:35;9.18;;;1.58;;
30553;SDS011;17335;50.720;7.452;2023-05-19T13:54:02;5.75;;;1.50;;
30553;SDS011;17335;50.720;7.452;2023-05-19T13:56:30;9.00;;;2.00;;
30553;SDS011;17335;50.720;7.452;2023-05-19T13:58:57;2.65;;;1.33;;
30553;SDS011;17335;50.720;7.452;2023-05-19T14:01:23;5.88;;;1.80;;
30553;SDS011;17335;50.720;7.452;2023-05-19T14:03:50;5.15;;;1.55;;
30553;SDS011;17335;50.720;7.452;2023-05-19T14:06:17;1.40;;;0.98;;
30553;SDS011;17335;50.720;7.452;2023-05-19T14:08:44;3.78;;;1.40;;
30553;SDS011;17335;50.720;7.452;2023-05-19T14:11:17;5.88;;;1.33;;
30553;SDS011;17335;50.720;7.452;2023-05-19T14:13:46;6.17;;;1.50;;
30553;SDS011;17335;50.720;7.452;2023-05-19T14:16:17;5.07;;;1.60;;
30553;SDS011;17335;50.720;7.452;2023-05-19T14:18:45;2.50;;;1.30;;
30553;SDS011;17335;50.720;7.452;2023-05-19T14:21:12;5.90;;;1.60;;
30553;SDS011;17335;50.720;7.452;2023-05-19T14:23:38;6.15;;;1.67;;
30553;SDS011;17335;50.720;7.452;2023-05-19T14:26:05;2.40;;;1.25;;
30553;SDS011;17335;50.720;7.452;2023-05-19T14:28:32;2.25;;;1.33;;
30553;SDS011;17335;50.720;7.452;2023-05-19T14:30:59;2.47;;;1.20;;
30553;SDS011;17335;50.720;7.452;2023-05-19T14:33:25;5.10;;;1.60;;
30553;SDS011;17335;50.720;7.452;2023-05-19T14:35:52;3.08;;;1.40;;
30553;SDS011;17335;50.720;7.452;2023-05-19T14:38:18;4.88;;;1.63;;
30553;SDS011;17335;50.720;7.452;2023-05-19T14:40:45;3.58;;;1.50;;
30553;SDS011;17335;50.720;7.452;2023-05-19T14:43:13;7.85;;;2.22;;
30553;SDS011;17335;50.720;7.452;2023-05-19T14:45:40;4.68;;;1.40;;
30553;SDS011;17335;50.720;7.452;2023-05-19T14:48:07;2.00;;;1.10;;
30553;SDS011;17335;50.720;7.452;2023-05-19T14:50:36;3.17;;;1.48;;
30553;SDS011;17335;50.720;7.452;2023-05-19T14:53:03;5.63;;;1.33;;
30553;SDS011;17335;50.720;7.452;2023-05-19T14:55:29;5.28;;;1.33;;
30553;SDS011;17335;50.720;7.452;2023-05-19T14:57:56;5.15;;;1.48;;
30553;SDS011;17335;50.720;7.452;2023-05-19T15:00:23;3.25;;;1.42;;
30553;SDS011;17335;50.720;7.452;2023-05-19T15:02:53;4.68;;;1.50;;
30553;SDS011;17335;50.720;7.452;2023-05-19T15:05:19;4.05;;;1.50;;
30553;SDS011;17335;50.720;7.452;2023-05-19T15:07:48;6.03;;;1.75;;
30553;SDS011;17335;50.720;7.452;2023-05-19T15:10:15;5.35;;;1.85;;
30553;SDS011;17335;50.720;7.452;2023-05-19T15:12:42;4.60;;;1.67;;
30553;SDS011;17335;50.720;7.452;2023-05-19T15:15:09;3.45;;;1.25;;
30553;SDS011;17335;50.720;7.452;2023-05-19T15:17:36;4.30;;;1.40;;
30553;SDS011;17335;50.720;7.452;2023-05-19T15:20:03;4.32;;;1.38;;
30553;SDS011;17335;50.720;7.452;2023-05-19T15:22:29;6.80;;;1.70;;
30553;SDS011;17335;50.720;7.452;2023-05-19T15:24:56;3.58;;;1.55;;
30553;SDS011;17335;50.720;7.452;2023-05-19T15:27:22;4.47;;;2.28;;
30553;SDS011;17335;50.720;7.452;2023-05-19T15:29:49;4.97;;;1.40;;
30553;SDS011;17335;50.720;7.452;2023-05-19T15:32:15;4.18;;;1.33;;